Time;durP1;ratioP1;P1;durP2;ratioP2;P2;SDS_P1;SDS_P2;PMS_P1;PMS_P2;Temp;Humidity;BMP_temperature;BMP_pressure;BME280_temperature;BME280_humidity;BME280_pressure;Samples;Min_cycle;Max_cycle;Signal;HPM_P1;HPM_P2
2022/05/30 00:01:14;;;;;;;8.68;2.30;;;8.10;99.90;;;;;;4995319;28;20044;-88
2022/05/30 00:03:40;;;;;;;11.07;2.38;;;8.10;99.90;;;;;;5012927;28;20133;-88
2022/05/30 00:06:11;;;;;;;12.45;2.10;;;8.10;99.90;;;;;;4994762;28;20140;-87
2022/05/30 00:08:37;;;;;;;9.57;2.38;;;8.10;99.90;;;;;;5013567;28;20049;-87
2022/05/30 00:11:04;;;;;;;10.30;2.10;;;8.00;99.90;;;;;;5011808;28;20045;-88
2022/05/30 00:13:30;;;;;;;9.57;2.30;;;8.00;99.90;;;;;;5013097;28;20066;-88
2022/05/30 00:15:56;;;;;;;8.73;2.00;;;8.00;99.90;;;;;;4995189;28;20052;-87
2022/05/30 00:18:21;;;;;;;7.57;2.00;;;8.00;99.90;;;;;;5012225;28;20042;-87
2022/05/30 00:20:47;;;;;;;9.90;2.05;;;8.10;99.90;;;;;;4995187;28;20076;-87
2022/05/30 00:23:13;;;;;;;10.23;2.30;;;8.00;99.90;;;;;;4995420;28;20137;-88
2022/05/30 00:25:43;;;;;;;9.43;2.20;;;8.10;99.90;;;;;;5012365;28;20054;-88
2022/05/30 00:28:09;;;;;;;7.25;2.00;;;8.00;99.90;;;;;;5012773;28;20478;-87
2022/05/30 00:30:38;;;;;;;9.10;1.95;;;8.10;99.90;;;;;;5013130;28;20461;-88
2022/05/30 00:33:03;;;;;;;7.03;1.90;;;8.00;99.90;;;;;;5011725;28;20097;-87
2022/05/30 00:35:29;;;;;;;12.77;2.03;;;9.40;99.90;;;;;;4994902;28;20474;-88
2022/05/30 00:37:56;;;;;;;9.27;2.17;;;8.00;99.90;;;;;;5012450;28;20041;-88
2022/05/30 00:40:22;;;;;;;6.97;1.75;;;8.00;99.90;;;;;;5011877;28;20053;-87
2022/05/30 00:42:48;;;;;;;5.57;1.80;;;8.00;99.90;;;;;;5012109;28;20440;-88
2022/05/30 00:45:14;;;;;;;7.30;2.20;;;8.00;99.90;;;;;;4994700;28;20129;-87
2022/05/30 00:47:40;;;;;;;8.75;1.80;;;8.00;99.90;;;;;;5011671;28;20050;-89
2022/05/30 00:50:06;;;;;;;9.48;1.90;;;8.00;99.90;;;;;;4995234;28;20041;-88
2022/05/30 00:52:37;;;;;;;8.00;1.95;;;8.00;99.90;;;;;;5012330;28;20070;-89
2022/05/30 00:55:14;;;;;;;4.88;1.50;;;8.00;99.90;;;;;;5011541;28;20052;-89
2022/05/30 00:57:42;;;;;;;10.02;2.95;;;8.10;99.90;;;;;;4997669;28;20482;-89
2022/05/30 01:00:21;;;;;;;6.20;1.75;;;8.00;99.90;;;;;;5011749;28;20099;-89
2022/05/30 01:08:23;;;;;;;7.13;1.67;;;7.90;99.90;;;;;;5011449;28;20042;-88
2022/05/30 01:10:49;;;;;;;9.40;1.70;;;7.80;99.90;;;;;;5012173;28;20037;-89
2022/05/30 01:13:15;;;;;;;5.63;1.60;;;7.80;99.90;;;;;;5013035;28;20593;-89
2022/05/30 01:15:41;;;;;;;6.32;1.60;;;7.80;99.90;;;;;;4993506;28;20082;-88
2022/05/30 01:18:20;;;;;;;7.43;1.80;;;7.70;99.90;;;;;;5012223;28;20410;-89
2022/05/30 01:20:52;;;;;;;5.97;1.55;;;7.60;99.90;;;;;;5012133;28;20085;-88
2022/05/30 01:23:29;;;;;;;6.03;1.80;;;7.60;99.90;;;;;;5011792;28;20046;-88
2022/05/30 01:26:16;;;;;;;6.95;1.67;;;7.50;99.90;;;;;;4994519;28;20056;-89
2022/05/30 01:29:05;;;;;;;8.02;1.90;;;7.40;99.90;;;;;;5011925;28;20064;-89
2022/05/30 01:31:31;;;;;;;5.30;1.60;;;7.40;99.90;;;;;;5016153;28;20040;-89
2022/05/30 01:33:57;;;;;;;6.33;1.57;;;7.30;99.90;;;;;;5035317;28;20034;-90
2022/05/30 01:36:24;;;;;;;5.27;1.50;;;7.20;99.90;;;;;;5004505;28;20064;-89
2022/05/30 01:38:53;;;;;;;5.53;1.60;;;7.20;99.90;;;;;;4995886;28;20045;-89
2022/05/30 01:41:19;;;;;;;5.50;1.77;;;7.20;99.90;;;;;;5012615;28;20049;-89
2022/05/30 01:43:45;;;;;;;8.77;1.63;;;7.20;99.90;;;;;;5011257;28;20041;-89
2022/05/30 01:46:14;;;;;;;6.87;1.70;;;7.40;99.90;;;;;;5011881;28;20042;-89
2022/05/30 01:48:40;;;;;;;8.02;1.90;;;7.10;99.90;;;;;;5012181;28;20034;-89
2022/05/30 01:51:06;;;;;;;7.28;1.70;;;7.10;99.90;;;;;;5013487;28;20486;-88
2022/05/30 01:53:32;;;;;;;5.55;1.70;;;7.00;99.90;;;;;;5015462;28;20060;-89
2022/05/30 01:55:57;;;;;;;7.00;1.87;;;7.00;99.90;;;;;;4997939;28;20093;-89
2022/05/30 01:58:23;;;;;;;7.47;1.88;;;6.90;99.90;;;;;;4997315;28;20070;-89
2022/05/30 02:00:50;;;;;;;9.17;2.20;;;6.90;99.90;;;;;;4997486;28;20046;-89
2022/05/30 02:03:16;;;;;;;5.40;1.60;;;6.80;99.90;;;;;;5014192;28;20046;-89
2022/05/30 02:05:41;;;;;;;7.43;1.70;;;6.80;99.90;;;;;;5014006;28;20073;-89
2022/05/30 02:08:08;;;;;;;5.90;1.80;;;6.90;99.90;;;;;;4996624;28;20482;-89
2022/05/30 02:10:34;;;;;;;5.10;1.60;;;6.80;99.90;;;;;;4997064;28;20125;-89
2022/05/30 02:13:00;;;;;;;6.63;1.70;;;6.80;99.90;;;;;;5014925;28;20049;-88
2022/05/30 02:15:26;;;;;;;6.20;2.63;;;6.70;99.90;;;;;;5015632;28;20083;-89
2022/05/30 02:17:52;;;;;;;8.10;1.80;;;6.70;99.90;;;;;;5014605;28;20421;-89
2022/05/30 02:20:18;;;;;;;5.87;1.60;;;5.70;99.90;;;;;;5015387;28;20350;-89
2022/05/30 02:22:44;;;;;;;7.53;1.80;;;6.60;99.90;;;;;;5015135;28;20057;-89
2022/05/30 02:25:12;;;;;;;6.70;1.90;;;6.60;99.90;;;;;;5014412;28;20184;-89
2022/05/30 02:27:41;;;;;;;6.90;1.70;;;6.50;99.90;;;;;;5014517;28;20061;-89
2022/05/30 02:30:08;;;;;;;6.87;1.90;;;6.50;99.90;;;;;;5014834;28;20512;-89
2022/05/30 02:32:37;;;;;;;5.47;1.70;;;6.50;99.90;;;;;;5002478;23;20145;-89
2022/05/30 02:38:44;;;;;;;5.97;1.90;;;6.60;99.90;;;;;;4995800;28;20050;-87
2022/05/30 02:41:19;;;;;;;8.03;2.20;;;6.40;99.90;;;;;;5014663;28;20048;-87
2022/05/30 02:43:50;;;;;;;9.80;2.10;;;6.20;99.90;;;;;;4996743;28;20042;-87
2022/05/30 02:46:17;;;;;;;6.50;2.10;;;6.60;99.90;;;;;;4996082;28;20050;-87
2022/05/30 02:48:43;;;;;;;8.63;2.10;;;6.30;99.90;;;;;;5020788;23;20060;-86
2022/05/30 02:51:09;;;;;;;11.33;2.30;;;6.40;99.90;;;;;;5020921;23;20101;-89
2022/05/30 02:53:35;;;;;;;7.93;2.30;;;6.40;99.90;;;;;;5013810;28;20073;-89
2022/05/30 02:56:01;;;;;;;6.43;2.00;;;6.40;99.90;;;;;;5014678;28;20081;-87
2022/05/30 02:58:27;;;;;;;10.03;2.40;;;6.30;99.90;;;;;;5014625;28;20046;-88
2022/05/30 03:00:53;;;;;;;8.57;2.43;;;6.40;99.90;;;;;;5013416;28;20103;-88
2022/05/30 03:03:18;;;;;;;9.53;2.30;;;6.40;99.90;;;;;;4996331;28;20413;-87
2022/05/30 03:05:44;;;;;;;9.97;2.33;;;6.40;99.90;;;;;;5013718;28;20125;-87
2022/05/30 03:08:10;;;;;;;8.43;2.17;;;6.30;99.90;;;;;;5013991;28;20052;-88
2022/05/30 03:10:36;;;;;;;11.60;2.47;;;6.40;99.90;;;;;;5014584;28;20041;-87
2022/05/30 03:13:10;;;;;;;8.80;2.30;;;6.40;99.90;;;;;;5020099;23;20382;-88
2022/05/30 03:15:36;;;;;;;;;;;6.20;99.90;;;;;;4996345;28;20129;-88
2022/05/30 03:18:01;;;;;;;9.10;2.20;;;7.80;99.90;;;;;;5056003;23;20047;-88
2022/05/30 03:20:27;;;;;;;10.10;2.60;;;6.40;99.90;;;;;;5013918;28;20417;-88
2022/05/30 03:22:53;;;;;;;8.60;2.60;;;6.40;99.90;;;;;;5013447;28;20561;-88
2022/05/30 03:25:19;;;;;;;8.40;2.50;;;6.40;99.90;;;;;;5013787;28;20049;-88
2022/05/30 03:27:44;;;;;;;8.47;2.30;;;6.40;99.90;;;;;;5013558;28;20132;-88
2022/05/30 03:30:11;;;;;;;7.70;2.27;;;6.40;99.90;;;;;;4995889;28;20129;-88
2022/05/30 03:32:37;;;;;;;9.37;2.73;;;6.40;99.90;;;;;;4996377;28;20100;-88
2022/05/30 03:35:06;;;;;;;10.07;3.30;;;6.40;99.90;;;;;;5013295;28;20042;-88
2022/05/30 03:37:32;;;;;;;13.60;3.30;;;6.40;99.90;;;;;;4996114;28;20104;-88
2022/05/30 03:39:57;;;;;;;9.80;3.07;;;6.40;99.90;;;;;;5013243;28;20412;-88
2022/05/30 03:42:23;;;;;;;10.03;3.00;;;6.40;99.90;;;;;;5012745;28;20084;-88
2022/05/30 03:44:48;;;;;;;13.83;3.10;;;6.40;99.90;;;;;;4995578;28;20129;-88
2022/05/30 03:47:15;;;;;;;10.67;3.00;;;6.40;99.90;;;;;;5013377;28;20068;-88
2022/05/30 03:49:41;;;;;;;10.53;3.20;;;6.50;99.90;;;;;;5028165;23;20053;-88
2022/05/30 03:52:07;;;;;;;9.43;2.90;;;6.40;99.90;;;;;;4995577;28;20509;-88
2022/05/30 03:54:33;;;;;;;8.80;2.70;;;6.50;99.90;;;;;;5013653;28;20041;-88
2022/05/30 03:56:58;;;;;;;10.53;2.93;;;6.50;99.90;;;;;;4994957;28;20042;-88
2022/05/30 03:59:24;;;;;;;13.63;2.80;;;6.50;99.90;;;;;;5013372;28;20068;-88
2022/05/30 04:01:52;;;;;;;11.33;2.90;;;6.50;99.90;;;;;;5007372;28;20146;-88
2022/05/30 04:04:18;;;;;;;10.07;2.97;;;6.60;99.90;;;;;;5004524;28;20045;-88
2022/05/30 04:06:44;;;;;;;11.03;3.13;;;6.60;99.90;;;;;;5013933;28;20404;-88
2022/05/30 04:09:09;;;;;;;9.93;3.23;;;6.70;99.90;;;;;;5032805;28;20048;-88
2022/05/30 04:11:35;;;;;;;11.83;3.50;;;6.60;99.90;;;;;;5032415;28;20382;-88
2022/05/30 04:14:01;;;;;;;11.43;3.20;;;6.70;99.90;;;;;;5031865;28;20195;-88
2022/05/30 04:16:27;;;;;;;13.43;2.93;;;6.70;99.90;;;;;;5032958;28;20041;-88
2022/05/30 04:18:53;;;;;;;11.30;3.23;;;6.70;99.90;;;;;;5014037;28;20049;-88
2022/05/30 04:21:19;;;;;;;10.80;3.10;;;6.80;99.90;;;;;;5032681;28;20041;-88
2022/05/30 04:23:44;;;;;;;11.07;2.80;;;6.80;99.90;;;;;;5032479;28;20121;-88
2022/05/30 04:26:12;;;;;;;12.70;3.00;;;6.80;99.90;;;;;;5032263;28;20469;-88
2022/05/30 04:28:58;;;;;;;11.20;3.30;;;6.80;99.90;;;;;;5033057;28;20076;-88
2022/05/30 04:31:24;;;;;;;9.17;2.90;;;6.80;99.90;;;;;;5031662;28;20077;-88
2022/05/30 04:33:52;;;;;;;11.70;3.20;;;7.90;99.90;;;;;;5033097;28;20112;-88
2022/05/30 04:36:17;;;;;;;10.60;3.17;;;6.90;99.90;;;;;;5051262;23;20058;-87
2022/05/30 04:41:16;;;;;;;;;;;7.00;99.90;;;;;;5012023;28;20057;-87
2022/05/30 04:43:42;;;;;;;8.33;3.20;;;7.10;99.90;;;;;;5012389;28;19921;-88
2022/05/30 04:46:12;;;;;;;12.00;3.63;;;7.10;99.90;;;;;;5012334;28;20053;-89
2022/05/30 04:48:38;;;;;;;10.07;3.50;;;7.20;99.90;;;;;;4995519;28;20046;-88
2022/05/30 04:53:30;;;;;;;10.35;3.40;;;7.30;99.90;;;;;;5062690;23;20141;-88
2022/05/30 04:55:56;;;;;;;9.53;3.10;;;7.30;99.90;;;;;;5012555;28;20046;-87
2022/05/30 04:58:21;;;;;;;10.15;3.20;;;7.40;99.90;;;;;;4994936;28;20042;-88
2022/05/30 05:00:47;;;;;;;8.53;2.70;;;7.50;99.90;;;;;;4995200;28;20046;-88
2022/05/30 05:03:12;;;;;;;10.57;3.20;;;7.60;99.90;;;;;;5013155;28;20061;-89
2022/05/30 05:05:38;;;;;;;9.55;3.40;;;7.60;99.90;;;;;;4994776;28;20057;-88
2022/05/30 05:08:16;;;;;;;10.27;2.72;;;7.60;99.90;;;;;;5011769;28;20045;-88
2022/05/30 05:11:04;;;;;;;7.93;2.58;;;7.60;99.90;;;;;;5012086;28;20485;-88
2022/05/30 05:13:29;;;;;;;9.20;2.65;;;7.60;99.90;;;;;;5183546;23;20133;-88
2022/05/30 05:15:56;;;;;;;9.32;2.65;;;7.60;99.90;;;;;;5012312;28;20117;-88
2022/05/30 05:18:22;;;;;;;8.23;2.80;;;7.70;99.90;;;;;;4994681;28;20049;-89
2022/05/30 05:20:47;;;;;;;8.57;2.50;;;7.70;99.90;;;;;;5011378;28;20045;-88
2022/05/30 05:23:13;;;;;;;9.32;2.63;;;7.70;99.90;;;;;;5012355;28;20049;-88
2022/05/30 05:25:40;;;;;;;8.60;2.67;;;7.80;99.90;;;;;;4996669;28;20116;-88
2022/05/30 05:28:06;;;;;;;8.70;2.60;;;7.80;99.90;;;;;;5015246;28;20057;-88
2022/05/30 05:30:33;;;;;;;11.60;2.85;;;7.90;99.90;;;;;;4998512;28;20048;-88
2022/05/30 05:33:01;;;;;;;11.85;3.10;;;7.90;99.90;;;;;;5017302;28;20453;-88
2022/05/30 05:35:27;;;;;;;9.85;3.10;;;8.00;99.90;;;;;;5015220;28;20126;-88
2022/05/30 05:37:52;;;;;;;9.68;3.00;;;8.10;99.90;;;;;;5015446;28;20132;-89
2022/05/30 05:40:18;;;;;;;8.95;2.67;;;8.10;99.90;;;;;;5015817;28;20045;-88
2022/05/30 05:42:44;;;;;;;8.55;2.85;;;8.20;99.90;;;;;;4997323;28;20531;-88
2022/05/30 05:45:10;;;;;;;9.48;3.00;;;8.20;99.90;;;;;;5015843;28;20093;-89
2022/05/30 05:47:36;;;;;;;9.25;3.22;;;8.20;99.90;;;;;;4998252;28;20081;-88
2022/05/30 05:50:02;;;;;;;10.05;3.15;;;8.20;99.90;;;;;;4997302;28;20433;-88
2022/05/30 05:52:28;;;;;;;12.80;3.65;;;8.20;99.90;;;;;;4998332;28;20371;-88
2022/05/30 05:54:57;;;;;;;8.50;3.10;;;8.10;99.90;;;;;;5015577;28;20139;-88
2022/05/30 05:57:25;;;;;;;9.15;2.83;;;8.20;99.90;;;;;;4997403;28;20054;-88
2022/05/30 05:59:51;;;;;;;10.15;3.25;;;8.10;99.90;;;;;;5015359;28;20088;-88
2022/05/30 06:02:17;;;;;;;9.75;3.25;;;8.20;99.90;;;;;;5015448;28;20050;-86
2022/05/30 06:04:42;;;;;;;11.40;3.22;;;8.10;99.90;;;;;;5020497;28;20065;-89
2022/05/30 06:07:08;;;;;;;10.93;3.40;;;8.20;99.90;;;;;;5015301;28;20048;-88
2022/05/30 06:09:34;;;;;;;10.02;3.20;;;8.20;99.90;;;;;;5015922;28;20034;-93
2022/05/30 06:12:46;;;;;;;9.80;3.38;;;8.30;99.90;;;;;;5015486;28;20045;-88
2022/05/30 06:23:31;;;;;;;10.27;3.30;;;7.90;99.90;;;;;;5015061;28;20045;-91
2022/05/30 06:30:06;;;;;;;10.65;3.70;;;8.10;99.90;;;;;;5015953;28;20068;-93
2022/05/30 06:33:03;;;;;;;14.65;3.85;;;8.60;99.90;;;;;;4981382;28;20069;-91
2022/05/30 06:35:38;;;;;;;11.80;3.63;;;8.80;99.90;;;;;;4997435;28;20076;-88
2022/05/30 06:38:16;;;;;;;11.07;3.80;;;9.70;99.90;;;;;;4997800;28;20148;-92
2022/05/30 06:41:16;;;;;;;11.57;3.77;;;9.20;99.90;;;;;;4997863;28;20065;-94
2022/05/30 06:47:55;;;;;;;9.40;3.05;;;9.50;99.90;;;;;;5038343;23;20326;-92
2022/05/30 06:50:26;;;;;;;7.72;2.40;;;9.80;99.90;;;;;;4997441;28;20045;-93
2022/05/30 06:52:53;;;;;;;8.98;2.60;;;10.40;99.90;;;;;;4995496;28;20033;-92
2022/05/30 06:58:31;;;;;;;12.50;3.10;;;10.40;99.90;;;;;;4995061;28;20176;-92
2022/05/30 07:01:20;;;;;;;9.18;2.80;;;10.60;99.90;;;;;;4994248;28;20046;-92
2022/05/30 07:04:20;;;;;;;9.05;3.03;;;10.60;99.90;;;;;;4946675;28;20050;-93
2022/05/30 07:06:45;;;;;;;10.55;2.60;;;10.70;99.90;;;;;;4976852;28;20046;-91
2022/05/30 07:09:15;;;;;;;9.13;2.92;;;10.40;99.90;;;;;;4947353;28;20054;-91
2022/05/30 07:15:48;;;;;;;8.63;2.33;;;10.80;99.90;;;;;;4994749;28;20493;-92
2022/05/30 07:18:56;;;;;;;7.93;2.63;;;10.60;99.90;;;;;;4977521;28;20064;-94
2022/05/30 07:22:10;;;;;;;7.22;2.35;;;10.90;99.90;;;;;;5170295;23;20133;-92
2022/05/30 07:24:42;;;;;;;9.88;2.63;;;11.20;99.90;;;;;;5013943;28;20084;-91
2022/05/30 07:27:14;;;;;;;6.38;2.10;;;11.60;99.90;;;;;;4996089;28;20050;-94
2022/05/30 07:33:53;;;;;;;7.05;1.80;;;12.00;99.90;;;;;;4994578;28;20114;-94
2022/05/30 07:36:32;;;;;;;5.97;1.58;;;11.80;99.90;;;;;;4976603;28;20050;-92
2022/05/30 07:39:13;;;;;;;5.70;1.70;;;12.50;99.90;;;;;;5016925;28;20030;-94
2022/05/30 07:48:55;;;;;;;6.03;1.65;;;12.10;99.90;;;;;;5067465;23;20050;-91
2022/05/30 08:00:13;;;;;;;3.38;1.30;;;12.50;99.90;;;;;;4937787;29;20079;-90
2022/05/30 08:14:42;;;;;;;4.20;1.40;;;11.70;99.90;;;;;;4936022;29;20116;-92
2022/05/30 08:18:17;;;;;;;3.90;1.33;;;11.90;99.90;;;;;;4933162;29;20471;-92
2022/05/30 08:21:50;;;;;;;6.20;1.40;;;12.30;99.90;;;;;;4918017;29;20051;-91
2022/05/30 08:36:17;;;;;;;4.40;1.40;;;12.10;99.90;;;;;;4912769;29;20135;-93
2022/05/30 08:42:08;;;;;;;3.65;1.40;;;12.30;99.90;;;;;;4914518;29;20055;-92
2022/05/30 08:48:55;;;;;;;5.13;1.27;;;12.10;99.90;;;;;;5143672;23;20133;-93
2022/05/30 08:52:36;;;;;;;3.53;1.20;;;12.10;99.90;;;;;;4972575;28;20105;-91
2022/05/30 09:58:07;;;;;;;4.55;1.30;;;12.60;99.90;;;;;;4991027;23;20059;-91
2022/05/30 10:05:09;;;;;;;;;;;;;;;;;;;;;
2022/05/30 10:08:05;;;;;;;2.70;1.20;;;11.80;99.90;;;;;;4914234;29;20063;-94
2022/05/30 10:11:21;;;;;;;;;;;;;;;;;;;;;
2022/05/30 10:32:55;;;;;;;2.58;1.10;;;12.70;99.90;;;;;;4956879;29;20518;-95
2022/05/30 11:06:06;;;;;;;1.60;0.90;;;14.20;99.90;;;;;;5281708;23;20054;-92
2022/05/30 15:41:57;;;;;;;4.38;1.50;;;14.80;99.90;;;;;;4821890;29;20175;-89
2022/05/30 16:42:14;;;;;;;4.20;1.52;;;14.90;99.90;;;;;;4831927;29;20036;-92
2022/05/30 16:44:55;;;;;;;3.83;1.42;;;15.00;99.90;;;;;;4825530;29;20050;-93
2022/05/30 17:01:32;;;;;;;5.40;1.60;;;14.80;99.90;;;;;;5521448;23;20387;-93
2022/05/30 17:07:50;;;;;;;5.25;1.73;;;15.70;99.90;;;;;;5030884;23;20050;-92
2022/05/30 17:25:54;;;;;;;;;;;;;;;;;;;;;
2022/05/30 20:08:49;;;;;;;5.47;1.70;;;10.50;99.90;;;;;;4804888;29;20150;-88
2022/05/30 20:11:45;;;;;;;3.97;1.50;;;10.20;99.90;;;;;;4792522;29;20047;-87
2022/05/30 20:14:26;;;;;;;4.70;1.60;;;10.50;99.90;;;;;;4793787;29;20051;-86
2022/05/30 20:23:00;;;;;;;5.00;1.63;;;9.70;99.90;;;;;;4813460;29;20098;-86
2022/05/30 20:26:03;;;;;;;4.45;1.70;;;9.90;99.90;;;;;;4811924;29;20557;-86
2022/05/30 20:28:29;;;;;;;5.10;1.50;;;9.00;99.90;;;;;;4814823;29;20042;-86
2022/05/30 20:31:20;;;;;;;4.53;1.70;;;9.70;99.90;;;;;;5129252;23;20064;-86
2022/05/30 20:58:35;;;;;;;6.45;2.03;;;8.80;99.90;;;;;;4911632;23;20138;-86
2022/05/30 21:01:01;;;;;;;6.30;2.20;;;9.10;99.90;;;;;;4978297;23;20489;-86
2022/05/30 21:03:45;;;;;;;6.68;2.28;;;9.00;99.90;;;;;;4834675;29;20042;-86
2022/05/30 21:18:00;;;;;;;7.57;2.30;;;8.50;99.90;;;;;;4790230;29;20050;-85
2022/05/30 21:25:21;;;;;;;7.32;2.33;;;8.90;99.90;;;;;;4787733;29;20079;-85
2022/05/30 21:28:53;;;;;;;6.00;2.10;;;8.20;99.90;;;;;;4788018;29;20055;-84
2022/05/30 21:32:04;;;;;;;6.88;2.30;;;8.50;99.90;;;;;;4789034;29;20063;-84
2022/05/30 21:38:06;;;;;;;6.50;2.22;;;8.70;99.90;;;;;;4790265;29;20567;-85
2022/05/30 21:41:00;;;;;;;6.68;2.38;;;8.40;99.90;;;;;;4792836;29;20099;-85
2022/05/30 21:46:25;;;;;;;;;;;8.30;99.90;;;;;;4814616;29;20529;-85
2022/05/30 21:51:48;;;;;;;6.93;2.55;;;8.20;99.90;;;;;;5156564;23;20058;-87
2022/05/30 21:54:14;;;;;;;7.90;2.80;;;8.10;99.90;;;;;;4823813;29;20057;-87
2022/05/30 21:56:47;;;;;;;8.20;3.30;;;8.10;99.90;;;;;;4826031;29;20090;-87
2022/05/30 21:59:28;;;;;;;9.82;3.55;;;8.00;99.90;;;;;;4829871;23;20517;-86
2022/05/30 22:02:13;;;;;;;9.23;4.20;;;7.40;99.90;;;;;;4824543;29;20062;-87
2022/05/30 22:05:04;;;;;;;10.38;3.60;;;7.10;99.90;;;;;;4811298;29;20097;-84
2022/05/30 22:07:43;;;;;;;;;;;;;;;;;;;;;
2022/05/30 22:10:18;;;;;;;7.93;3.30;;;7.60;99.90;;;;;;4824716;29;20066;-87
2022/05/30 22:15:59;;;;;;;;;;;7.60;99.90;;;;;;4806084;29;20058;-85
2022/05/30 22:18:31;;;;;;;8.77;3.30;;;7.70;99.90;;;;;;4824895;29;19993;-87
2022/05/30 22:21:00;;;;;;;8.20;2.95;;;8.10;99.90;;;;;;4823423;29;20047;-87
2022/05/30 22:26:38;;;;;;;8.63;3.20;;;7.50;99.90;;;;;;3476373;23;20065;-87
2022/05/30 22:29:26;;;;;;;7.80;3.20;;;7.10;99.90;;;;;;4871802;23;20059;-85
2022/05/30 22:40:45;;;;;;;8.05;3.03;;;7.40;99.90;;;;;;4786020;30;20066;-86
2022/05/30 22:43:37;;;;;;;7.80;3.10;;;7.30;99.90;;;;;;4805674;29;20082;-85
2022/05/30 22:46:27;;;;;;;10.32;3.25;;;7.10;99.90;;;;;;4805517;29;20043;-85
2022/05/30 22:52:38;;;;;;;7.63;2.97;;;6.90;99.90;;;;;;4807238;29;20396;-86
2022/05/30 22:58:47;;;;;;;7.30;2.90;;;6.30;99.90;;;;;;4820434;29;20054;-85
2022/05/30 23:01:23;;;;;;;9.37;3.03;;;7.60;99.90;;;;;;4806166;29;20047;-85
2022/05/30 23:03:54;;;;;;;7.50;2.97;;;6.70;99.90;;;;;;4813668;23;20058;-85
2022/05/30 23:23:24;;;;;;;7.93;3.27;;;6.90;99.90;;;;;;4824555;29;20080;-86
2022/05/30 23:34:43;;;;;;;9.27;3.93;;;6.90;99.90;;;;;;4803847;29;20043;-85
2022/05/30 23:37:21;;;;;;;8.70;3.67;;;7.00;99.90;;;;;;4772591;29;20157;-86
2022/05/30 23:40:05;;;;;;;8.27;3.50;;;6.80;99.90;;;;;;4793602;30;20389;-86
2022/05/30 23:50:09;;;;;;;9.80;3.78;;;7.10;99.90;;;;;;4785954;30;20094;-86
